Página principal
METAR-TAF:

METAR-TAF

Aeroportos :

Hydaburg, Alasca, Estados Unidos

latitude: 55-12N, longitude: 132-50W, altura: 0 m

Observação actual do tempo

O boletim foi feito há 16 minutos, às 12:25 UTC
Vento calmo
Temperatura 0°C
Humidade 93%
Pressão 1022 hPa
Visibilidade: 4.8 km
Encobertoa uma altura de 100 ft
neblina

METAR: PAHY 151225Z AUTO 00000KT 3SM BR OVC001 00/M01 A3019 RMK AO2 FZRANO PNO $

Hora: 04:41 (12:41 UTC)


TAF: em falta

Observações e previsões do tempo de mais de 4000 aeroportos (mensagens METAR e TAF).

As estações disponíveis são os pontos amarelos e vermelhos sobre o mapa.

Mova o rato sobre o mapa para ver o nome da estação.

Depois clique no ponto para visualizar as observações e previsões meteorológicas.

Para alterar o mapa : clique nos botões verdes com uma cruz preta para aumentar o zoom; no botão verde com uma pitada de zoom; ou nas setas verdes para mapas adjacentes.


METAR-TAF: